Affton, Missouri
Current Conditions -  °F | °C
As of 5:53 PM on Sunday 21 Dec 2014 (Local Time) from KCPS Reporting Station
Overcast Overcast  
Wind Chill: 37°   Ceiling: 3800
Heat Index: 42°   Visibility: 10mi
Dew Point: 32°   Wind: 9mph
Humidity: 67%   Direction: 130°SE
Pressure: 30.02"   Gusts: NA
Location:  38.55°N, 90.33°W
Report Text: KCPS 212353Z 13008KT 10SM OVC038 06/00 A3002 RMK AO2 SLP169 T00560000 10067 20050 58009
Loading
Personal Weather Stations






























Interactive Weather Map New forecast layout! Learn more

10-Day Weather Forecast

Advertisements
Track Severe Weather on mobile